createdAt,value
2018-01-03T00:01:13.142Z,9.90
2018-01-03T00:03:46.074Z,9.70
2018-01-03T00:06:18.930Z,9.70
2018-01-03T00:08:50.321Z,9.50
2018-01-03T00:11:22.344Z,9.40
2018-01-03T00:13:54.237Z,9.40
2018-01-03T00:16:25.360Z,9.40
2018-01-03T00:18:56.210Z,9.60
2018-01-03T00:21:27.881Z,9.40
2018-01-03T00:23:58.608Z,9.30
2018-01-03T00:26:29.482Z,9.10
2018-01-03T00:29:40.750Z,9.20
2018-01-03T00:32:11.699Z,9.10
2018-01-03T00:34:44.211Z,9.20
2018-01-03T00:37:15.010Z,9.20
2018-01-03T00:39:48.333Z,9.10
2018-01-03T00:42:19.104Z,9.20
2018-01-03T00:45:29.597Z,9.20
2018-01-03T00:48:02.388Z,9.00
2018-01-03T00:50:33.824Z,9.20
2018-01-03T00:53:05.204Z,9.10
2018-01-03T00:55:35.951Z,9.00
2018-01-03T00:58:07.854Z,9.00
2018-01-03T01:00:39.064Z,9.00
2018-01-03T01:03:12.573Z,9.10
2018-01-03T01:05:46.215Z,9.10
2018-01-03T01:08:18.765Z,9.20
2018-01-03T01:10:51.587Z,9.30
2018-01-03T01:13:24.004Z,9.20
2018-01-03T01:26:22.648Z,9.30
2018-01-03T01:28:54.750Z,9.20
2018-01-03T01:38:10.663Z,9.20
2018-01-03T01:40:42.842Z,9.20
2018-01-03T01:43:13.920Z,9.20
2018-01-03T01:49:47.242Z,9.20
2018-01-03T01:52:19.179Z,9.10
2018-01-03T01:54:49.219Z,9.10
2018-01-03T01:57:21.076Z,9.10
2018-01-03T01:59:51.803Z,9.00
2018-01-03T02:02:26.509Z,9.00
2018-01-03T02:04:57.777Z,9.00
2018-01-03T02:07:29.519Z,9.10
2018-01-03T02:10:01.444Z,9.10
2018-01-03T02:12:29.943Z,9.10
2018-01-03T02:15:49.530Z,9.00
2018-01-03T02:18:21.454Z,9.10
2018-01-03T02:20:54.318Z,8.90
2018-01-03T02:23:28.059Z,8.90
2018-01-03T02:25:59.710Z,8.70
2018-01-03T02:28:31.111Z,8.80
2018-01-03T02:31:04.046Z,8.80
2018-01-03T02:33:36.247Z,8.80
2018-01-03T02:36:08.364Z,8.80
2018-01-03T02:38:40.341Z,8.70
2018-01-03T02:41:13.804Z,8.70
2018-01-03T02:43:45.112Z,8.80
2018-01-03T02:46:20.543Z,8.80
2018-01-03T02:48:55.692Z,8.90
2018-01-03T02:51:32.070Z,9.00
2018-01-03T02:54:14.075Z,8.90
2018-01-03T02:56:46.148Z,8.90
2018-01-03T02:59:25.410Z,9.00
2018-01-03T03:08:44.766Z,8.00
2018-01-03T03:11:17.140Z,7.90
2018-01-03T03:13:48.996Z,8.00
2018-01-03T03:16:20.281Z,8.00
2018-01-03T03:18:55.281Z,8.40
2018-01-03T03:21:26.113Z,8.40
2018-01-03T03:23:57.906Z,8.60
2018-01-03T03:26:29.067Z,8.60
2018-01-03T03:29:00.459Z,8.60
2018-01-03T03:31:32.299Z,8.50
2018-01-03T03:34:03.716Z,8.60
2018-01-03T03:36:38.705Z,8.40
2018-01-03T03:39:10.917Z,8.40
2018-01-03T03:41:44.705Z,8.50
2018-01-03T03:44:15.128Z,8.40
2018-01-03T03:57:30.069Z,8.10
2018-01-03T04:00:01.003Z,7.90
2018-01-03T04:02:52.587Z,7.70
2018-01-03T04:05:23.816Z,7.60
2018-01-03T04:07:55.068Z,7.50
2018-01-03T04:10:28.074Z,7.50
2018-01-03T04:12:59.861Z,7.40
2018-01-03T04:15:31.321Z,7.30
2018-01-03T04:18:39.431Z,7.20
2018-01-03T04:21:10.545Z,7.20
2018-01-03T04:23:42.460Z,7.20
2018-01-03T04:26:16.673Z,7.10
2018-01-03T04:28:48.386Z,7.20
2018-01-03T04:31:19.525Z,7.10
2018-01-03T04:41:16.050Z,7.30
2018-01-03T04:43:47.998Z,7.30
2018-01-03T04:46:19.112Z,7.20
2018-01-03T04:49:11.710Z,7.20
2018-01-03T04:51:42.485Z,7.10
2018-01-03T04:54:17.384Z,7.20
2018-01-03T04:56:48.229Z,7.30
2018-01-03T04:59:19.590Z,7.30
2018-01-03T05:01:51.427Z,7.20
2018-01-03T05:04:24.585Z,7.20
2018-01-03T05:06:56.248Z,7.20
2018-01-03T05:09:27.462Z,7.10
2018-01-03T05:11:59.558Z,7.30
2018-01-03T05:14:31.039Z,7.30
2018-01-03T05:17:02.456Z,7.40
2018-01-03T05:19:34.258Z,7.50
2018-01-03T05:22:05.986Z,7.60
2018-01-03T05:24:37.445Z,7.50
2018-01-03T05:27:09.561Z,7.40
2018-01-03T05:29:41.084Z,7.40
2018-01-03T05:32:12.812Z,7.30
2018-01-03T05:34:43.752Z,7.20
2018-01-03T05:37:15.796Z,7.30
2018-01-03T05:39:47.234Z,7.30
2018-01-03T05:42:19.593Z,7.20
2018-01-03T05:44:51.583Z,7.40
2018-01-03T05:47:24.742Z,7.30
2018-01-03T05:50:38.459Z,7.30
2018-01-03T05:53:08.770Z,7.40
2018-01-03T05:55:39.292Z,7.20
2018-01-03T05:58:09.637Z,7.20
2018-01-03T06:00:40.465Z,7.10
2018-01-03T06:03:09.518Z,7.30
2018-01-03T06:05:40.021Z,7.30
2018-01-03T06:08:11.934Z,7.40
2018-01-03T06:10:41.119Z,7.30
2018-01-03T06:13:12.027Z,7.10
2018-01-03T06:15:44.079Z,6.90
2018-01-03T06:18:14.975Z,7.00
2018-01-03T06:21:30.325Z,7.10
2018-01-03T06:24:05.417Z,7.10
2018-01-03T06:26:38.065Z,7.10
2018-01-03T06:29:09.646Z,7.10
2018-01-03T06:31:39.688Z,7.00
2018-01-03T06:40:17.683Z,7.00
2018-01-03T06:42:51.993Z,7.10
2018-01-03T06:45:24.629Z,7.20
2018-01-03T06:47:54.731Z,7.20
2018-01-03T06:51:04.540Z,7.20
2018-01-03T06:53:36.514Z,7.10
2018-01-03T06:56:08.702Z,6.90
2018-01-03T06:58:39.399Z,7.20
2018-01-03T07:01:10.286Z,7.10
2018-01-03T07:03:46.978Z,7.10
2018-01-03T07:06:31.128Z,7.10
2018-01-03T07:09:03.756Z,7.10
2018-01-03T07:11:38.715Z,7.10
2018-01-03T07:14:11.615Z,6.90
2018-01-03T07:16:42.610Z,6.80
2018-01-03T07:19:17.404Z,7.00
2018-01-03T07:25:27.247Z,7.20
2018-01-03T07:28:01.256Z,7.00
2018-01-03T07:30:34.156Z,7.00
2018-01-03T07:33:04.005Z,7.00
2018-01-03T07:42:21.893Z,7.30
2018-01-03T07:44:55.128Z,7.30
2018-01-03T07:47:28.564Z,7.30
2018-01-03T07:50:01.154Z,7.30
2018-01-03T07:55:54.196Z,7.20
2018-01-03T07:58:25.760Z,7.30
2018-01-03T08:00:57.871Z,7.30
2018-01-03T08:03:31.400Z,7.30
2018-01-03T08:06:02.418Z,7.50
2018-01-03T08:08:33.560Z,7.50
2018-01-03T08:11:09.471Z,7.50
2018-01-03T08:13:40.533Z,7.40
2018-01-03T08:16:10.469Z,7.30
2018-01-03T08:18:42.402Z,7.30
2018-01-03T08:21:24.604Z,7.50
2018-01-03T08:23:55.541Z,7.40
2018-01-03T08:26:24.696Z,7.30
2018-01-03T08:28:55.533Z,7.50
2018-01-03T08:31:24.761Z,7.60
2018-01-03T08:33:56.611Z,7.70
2018-01-03T08:36:38.190Z,7.70
2018-01-03T08:39:11.199Z,7.80
2018-01-03T08:41:45.635Z,7.70
2018-01-03T08:44:18.803Z,7.70
2018-01-03T08:46:51.392Z,7.70
2018-01-03T08:49:26.441Z,7.70
2018-01-03T08:52:20.925Z,7.70
2018-01-03T08:54:56.732Z,7.80
2018-01-03T09:00:31.796Z,7.80
2018-01-03T09:03:03.445Z,7.90
2018-01-03T09:05:37.705Z,7.80
2018-01-03T09:08:11.904Z,7.90
2018-01-03T09:10:41.466Z,7.90
2018-01-03T09:13:15.667Z,8.00
2018-01-03T09:15:49.113Z,8.00
2018-01-03T09:18:19.225Z,8.00
2018-01-03T09:20:48.442Z,8.00
2018-01-03T09:34:06.812Z,8.20
2018-01-03T09:36:36.992Z,8.30
2018-01-03T09:39:28.758Z,8.40
2018-01-03T09:42:01.699Z,8.40
2018-01-03T09:44:31.328Z,8.30
2018-01-03T09:47:03.357Z,8.40
2018-01-03T09:49:34.035Z,8.40
2018-01-03T09:52:07.533Z,8.50
2018-01-03T09:54:42.793Z,8.50
2018-01-03T09:57:18.211Z,8.60
2018-01-03T09:59:51.809Z,8.60
2018-01-03T10:02:22.621Z,8.60
2018-01-03T10:04:56.032Z,8.60
2018-01-03T10:07:27.190Z,8.70
2018-01-03T10:13:40.404Z,8.70
2018-01-03T10:16:13.901Z,8.70
2018-01-03T10:18:43.927Z,8.70
2018-01-03T10:21:18.436Z,8.70
2018-01-03T10:23:47.601Z,8.80
2018-01-03T10:26:19.661Z,9.10
2018-01-03T10:28:52.960Z,9.10
2018-01-03T10:31:26.718Z,9.20
2018-01-03T10:34:02.439Z,9.20
2018-01-03T10:36:37.000Z,9.20
2018-01-03T10:39:27.793Z,9.20
2018-01-03T10:41:57.805Z,9.20
2018-01-03T10:44:29.179Z,9.20
2018-01-03T10:47:00.616Z,9.20
2018-01-03T10:49:29.802Z,9.20
2018-01-03T10:51:59.579Z,9.30
2018-01-03T11:01:52.138Z,9.60
2018-01-03T11:04:22.689Z,9.70
2018-01-03T11:06:52.673Z,9.60
2018-01-03T11:09:48.276Z,9.60
2018-01-03T11:12:22.129Z,9.60
2018-01-03T11:14:52.930Z,9.60
2018-01-03T11:17:24.471Z,9.60
2018-01-03T11:22:56.371Z,9.60
2018-01-03T11:29:09.356Z,9.50
2018-01-03T11:31:40.577Z,9.50
2018-01-03T11:34:12.849Z,9.60
2018-01-03T11:36:44.829Z,9.60
2018-01-03T11:56:08.948Z,10.00
2018-01-03T11:58:40.503Z,10.00
2018-01-03T12:01:15.554Z,10.10
2018-01-03T12:03:47.010Z,10.00
2018-01-03T12:06:15.898Z,10.10
2018-01-03T12:08:48.429Z,10.10
2018-01-03T12:11:40.724Z,10.10
2018-01-03T12:14:09.886Z,10.10
2018-01-03T12:16:43.732Z,10.30
2018-01-03T12:19:13.748Z,10.30
2018-01-03T12:21:45.879Z,10.40
2018-01-03T12:24:19.678Z,10.40
2018-01-03T12:26:49.840Z,10.20
2018-01-03T12:29:20.920Z,10.20
2018-01-03T12:31:50.663Z,10.40
2018-01-03T12:34:24.963Z,10.30
2018-01-03T12:37:00.972Z,10.30
2018-01-03T12:39:32.968Z,10.40
2018-01-03T12:52:10.229Z,10.10
2018-01-03T12:54:40.088Z,10.10
2018-01-03T12:57:44.606Z,10.00
2018-01-03T13:00:14.417Z,10.10
2018-01-03T13:02:46.011Z,10.10
2018-01-03T13:05:21.213Z,10.20
2018-01-03T13:07:55.867Z,10.20
2018-01-03T13:10:25.691Z,10.00
2018-01-03T13:20:20.193Z,9.90
2018-01-03T13:22:52.811Z,10.00
2018-01-03T13:25:29.467Z,9.90
2018-01-03T13:31:46.432Z,9.90
2018-01-03T13:34:17.243Z,10.10
2018-01-03T13:36:47.636Z,10.10
2018-01-03T13:39:19.819Z,10.00
2018-01-03T13:42:06.536Z,10.00
2018-01-03T13:44:39.895Z,10.00
2018-01-03T13:47:08.768Z,10.00
2018-01-03T13:49:42.021Z,10.00
2018-01-03T13:52:17.061Z,10.00
2018-01-03T13:54:50.377Z,10.00
2018-01-03T13:57:19.746Z,9.90
2018-01-03T13:59:52.984Z,9.70
2018-01-03T14:02:23.364Z,9.60
2018-01-03T14:04:53.341Z,9.60
2018-01-03T14:07:29.104Z,9.60
2018-01-03T14:10:06.572Z,9.50
2018-01-03T14:12:43.402Z,9.50
2018-01-03T14:15:19.802Z,9.60
2018-01-03T14:17:52.904Z,9.50
2018-01-03T14:20:29.346Z,9.40
2018-01-03T14:23:02.261Z,9.50
2018-01-03T14:25:31.693Z,9.50
2018-01-03T14:34:46.613Z,9.60
2018-01-03T14:37:18.748Z,9.60
2018-01-03T14:39:50.428Z,9.60
2018-01-03T14:42:33.987Z,9.70
2018-01-03T14:45:05.917Z,9.70
2018-01-03T14:47:37.281Z,9.70
2018-01-03T14:50:08.370Z,9.60
2018-01-03T14:52:42.424Z,9.70
2018-01-03T14:55:13.566Z,9.60
2018-01-03T15:04:29.196Z,9.50
2018-01-03T15:07:03.224Z,9.30
2018-01-03T15:09:34.851Z,9.30
2018-01-03T15:12:04.914Z,9.30
2018-01-03T15:17:38.542Z,9.20
2018-01-03T15:20:09.986Z,9.10
2018-01-03T15:22:46.130Z,9.10
2018-01-03T15:25:22.394Z,9.00
2018-01-03T15:28:03.139Z,9.10
2018-01-03T15:30:35.842Z,9.10
2018-01-03T15:33:09.388Z,9.10
2018-01-03T15:35:41.190Z,9.00
2018-01-03T15:38:17.799Z,8.90
2018-01-03T15:40:48.137Z,9.00
2018-01-03T15:43:22.960Z,8.90
2018-01-03T15:45:53.733Z,9.00
2018-01-03T15:48:24.680Z,9.00
2018-01-03T15:50:54.649Z,9.00
2018-01-03T15:53:28.589Z,9.00
2018-01-03T15:56:01.674Z,8.90
2018-01-03T15:58:33.455Z,9.00
2018-01-03T16:01:06.442Z,8.90
2018-01-03T16:03:40.108Z,8.70
2018-01-03T16:06:11.840Z,8.60
2018-01-03T16:08:44.931Z,8.60
2018-01-03T16:11:16.944Z,8.80
2018-01-03T16:13:48.930Z,8.70
2018-01-03T16:16:20.373Z,8.70
2018-01-03T16:18:49.953Z,8.60
2018-01-03T16:21:21.062Z,8.70
2018-01-03T16:23:56.466Z,8.60
2018-01-03T16:26:29.241Z,8.60
2018-01-03T16:33:02.268Z,8.50
2018-01-03T16:35:36.781Z,8.50
2018-01-03T16:38:13.405Z,8.60
2018-01-03T16:40:42.227Z,8.60
2018-01-03T16:43:14.463Z,8.60
2018-01-03T16:45:53.750Z,8.60
2018-01-03T16:48:26.729Z,8.60
2018-01-03T16:51:01.664Z,8.60
2018-01-03T16:53:35.669Z,8.60
2018-01-03T16:56:07.671Z,8.60
2018-01-03T16:58:40.524Z,8.60
2018-01-03T17:07:59.787Z,8.70
2018-01-03T17:10:32.030Z,8.60
2018-01-03T17:13:04.985Z,8.60
2018-01-03T17:25:48.327Z,8.60
2018-01-03T17:28:22.292Z,8.50
2018-01-03T17:30:59.141Z,8.60
2018-01-03T17:33:31.197Z,8.80
2018-01-03T17:36:01.102Z,8.70
2018-01-03T17:38:30.842Z,8.70
2018-01-03T17:41:01.249Z,8.70
2018-01-03T17:43:34.753Z,8.70
2018-01-03T17:46:53.207Z,8.70
2018-01-03T17:49:22.228Z,8.80
2018-01-03T17:51:52.410Z,8.80
2018-01-03T17:54:24.903Z,8.70
2018-01-03T17:56:55.889Z,8.80
2018-01-03T17:59:27.069Z,8.70
2018-01-03T18:02:36.631Z,8.70
2018-01-03T18:05:07.112Z,8.70
2018-01-03T18:07:39.595Z,8.70
2018-01-03T18:10:09.009Z,8.80
2018-01-03T18:12:38.257Z,8.80
2018-01-03T18:15:12.329Z,8.90
2018-01-03T18:18:06.712Z,8.80
2018-01-03T18:20:38.891Z,8.80
2018-01-03T18:23:08.180Z,8.80
2018-01-03T18:25:42.164Z,8.70
2018-01-03T18:28:12.020Z,8.70
2018-01-03T18:30:41.935Z,8.70
2018-01-03T18:40:18.401Z,8.60
2018-01-03T18:42:51.607Z,8.70
2018-01-03T18:45:22.997Z,8.60
2018-01-03T18:58:03.598Z,8.60
2018-01-03T19:00:35.668Z,8.40
2018-01-03T19:03:27.757Z,8.40
2018-01-03T19:05:57.956Z,8.40
2018-01-03T19:08:31.076Z,8.40
2018-01-03T19:11:04.231Z,8.40
2018-01-03T19:13:35.325Z,8.50
2018-01-03T19:16:06.173Z,8.50
2018-01-03T19:32:43.297Z,8.30
2018-01-03T19:35:15.290Z,8.30
2018-01-03T19:37:49.320Z,8.30
2018-01-03T19:40:21.336Z,8.20
2018-01-03T19:42:53.991Z,8.30
2018-01-03T19:45:26.037Z,8.30
2018-01-03T19:48:38.341Z,8.20
2018-01-03T19:51:10.741Z,8.20
2018-01-03T19:53:43.177Z,8.20
2018-01-03T19:56:14.664Z,8.10
2018-01-03T19:58:46.311Z,8.20
2018-01-03T20:01:23.002Z,8.20
2018-01-03T20:03:58.398Z,8.20
2018-01-03T20:06:32.827Z,8.10
2018-01-03T20:09:29.933Z,8.00
2018-01-03T20:11:59.642Z,8.00
2018-01-03T20:14:35.946Z,8.00
2018-01-03T20:17:31.428Z,8.00
2018-01-03T20:27:28.624Z,8.00
2018-01-03T20:30:12.343Z,7.90
2018-01-03T20:32:43.285Z,7.90
2018-01-03T20:39:12.938Z,7.80
2018-01-03T20:41:43.953Z,7.80
2018-01-03T20:44:18.055Z,7.80
2018-01-03T20:46:49.777Z,7.70
2018-01-03T20:49:21.566Z,7.70
2018-01-03T20:51:55.589Z,7.70
2018-01-03T20:54:27.214Z,7.80
2018-01-03T20:56:59.451Z,7.70
2018-01-03T20:59:34.334Z,7.60
2018-01-03T21:02:09.211Z,7.80
2018-01-03T21:08:04.066Z,7.70
2018-01-03T21:10:35.710Z,7.70
2018-01-03T21:13:07.529Z,7.70
2018-01-03T21:15:39.731Z,7.60
2018-01-03T21:18:11.141Z,7.40
2018-01-03T21:20:45.488Z,7.60
2018-01-03T21:23:18.770Z,7.60
2018-01-03T21:25:53.237Z,7.60
2018-01-03T21:28:25.195Z,7.70
2018-01-03T21:31:02.692Z,7.70
2018-01-03T21:33:39.204Z,7.70
2018-01-03T21:43:33.687Z,7.60
2018-01-03T21:46:08.152Z,7.70
2018-01-03T21:48:50.091Z,7.70
2018-01-03T21:51:26.203Z,7.70
2018-01-03T21:53:58.165Z,7.60
2018-01-03T21:56:34.011Z,7.70
2018-01-03T21:59:09.418Z,7.70
2018-01-03T22:01:41.467Z,7.70
2018-01-03T22:04:12.972Z,7.70
2018-01-03T22:06:45.621Z,7.70
2018-01-03T22:09:24.636Z,7.70
2018-01-03T22:11:57.428Z,7.70
2018-01-03T22:14:34.566Z,7.50
2018-01-03T22:17:11.331Z,7.50
2018-01-03T22:19:47.887Z,7.40
2018-01-03T22:22:19.531Z,7.40
2018-01-03T22:24:50.840Z,7.40
2018-01-03T22:27:22.838Z,7.50
2018-01-03T22:29:55.107Z,7.50
2018-01-03T22:32:28.328Z,7.50
2018-01-03T22:35:00.804Z,7.60
2018-01-03T22:37:34.557Z,7.60
2018-01-03T22:40:10.370Z,7.50
2018-01-03T22:42:44.452Z,7.30
2018-01-03T22:45:18.366Z,7.30
2018-01-03T22:47:55.181Z,7.40
2018-01-03T22:50:27.149Z,7.40
2018-01-03T22:53:00.548Z,7.40
2018-01-03T22:55:37.811Z,7.20
2018-01-03T22:58:12.319Z,7.00
2018-01-03T23:00:50.825Z,6.90
2018-01-03T23:03:25.467Z,6.80
2018-01-03T23:06:02.165Z,6.80
2018-01-03T23:08:33.568Z,6.80
2018-01-03T23:11:06.566Z,6.90
2018-01-03T23:13:49.806Z,7.00
2018-01-03T23:16:24.221Z,7.00
2018-01-03T23:19:00.512Z,7.00
2018-01-03T23:21:41.264Z,7.00
2018-01-03T23:24:13.852Z,6.90
2018-01-03T23:26:47.108Z,6.60
2018-01-03T23:29:18.412Z,6.60
2018-01-03T23:31:49.574Z,6.60
2018-01-03T23:34:21.449Z,6.80
2018-01-03T23:36:54.952Z,7.00
2018-01-03T23:39:25.769Z,7.00
2018-01-03T23:41:59.354Z,6.90
2018-01-03T23:44:30.770Z,7.10
2018-01-03T23:47:01.149Z,7.20
2018-01-03T23:49:33.357Z,7.20
2018-01-03T23:52:03.383Z,7.20
2018-01-03T23:54:34.092Z,7.20
2018-01-03T23:57:04.409Z,7.40
2018-01-03T23:59:34.400Z,7.20
